createdAt,value
2022-08-19T00:01:59.287Z,100.00
2022-08-19T00:04:37.442Z,100.00
2022-08-19T00:07:06.661Z,100.00
2022-08-19T00:09:34.885Z,100.00
2022-08-19T00:12:02.837Z,100.00
2022-08-19T00:14:33.880Z,100.00
2022-08-19T00:17:02.083Z,100.00
2022-08-19T00:19:29.592Z,100.00
2022-08-19T00:21:57.372Z,100.00
2022-08-19T00:24:25.729Z,100.00
2022-08-19T00:26:53.679Z,100.00
2022-08-19T00:29:22.554Z,100.00
2022-08-19T00:31:52.218Z,100.00
2022-08-19T00:34:19.603Z,100.00
2022-08-19T00:36:47.446Z,100.00
2022-08-19T00:39:16.519Z,100.00
2022-08-19T00:41:47.736Z,100.00
2022-08-19T00:44:26.890Z,100.00
2022-08-19T00:46:58.172Z,100.00
2022-08-19T00:49:35.537Z,100.00
2022-08-19T00:52:07.673Z,100.00
2022-08-19T00:54:37.651Z,100.00
2022-08-19T00:57:08.897Z,100.00
2022-08-19T00:59:58.779Z,100.00
2022-08-19T01:02:28.387Z,100.00
2022-08-19T01:04:56.749Z,100.00
2022-08-19T01:07:24.169Z,100.00
2022-08-19T01:09:51.687Z,100.00
2022-08-19T01:12:19.476Z,100.00
2022-08-19T01:14:48.828Z,100.00
2022-08-19T01:17:17.242Z,100.00
2022-08-19T01:19:47.789Z,100.00
2022-08-19T01:22:31.459Z,100.00
2022-08-19T01:25:00.754Z,100.00
2022-08-19T01:27:29.911Z,100.00
2022-08-19T01:30:04.095Z,100.00
2022-08-19T01:32:33.984Z,100.00
2022-08-19T01:35:03.967Z,100.00
2022-08-19T01:37:31.779Z,100.00
2022-08-19T01:39:59.136Z,100.00
2022-08-19T01:42:30.298Z,100.00
2022-08-19T01:44:58.344Z,100.00
2022-08-19T01:47:25.513Z,100.00
2022-08-19T01:49:52.764Z,100.00
2022-08-19T01:52:20.606Z,100.00
2022-08-19T01:54:47.916Z,100.00
2022-08-19T01:57:15.839Z,100.00
2022-08-19T01:59:45.083Z,100.00
2022-08-19T02:02:12.636Z,100.00
2022-08-19T02:04:40.348Z,100.00
2022-08-19T02:07:09.107Z,100.00
2022-08-19T02:09:36.734Z,100.00
2022-08-19T02:12:05.841Z,100.00
2022-08-19T02:14:35.290Z,100.00
2022-08-19T02:17:02.653Z,100.00
2022-08-19T02:19:29.869Z,100.00
2022-08-19T02:21:57.258Z,100.00
2022-08-19T02:24:24.604Z,100.00
2022-08-19T02:26:52.345Z,100.00
2022-08-19T02:29:19.857Z,100.00
2022-08-19T02:31:47.268Z,100.00
2022-08-19T02:34:14.556Z,100.00
2022-08-19T02:36:42.495Z,100.00
2022-08-19T02:39:11.104Z,100.00
2022-08-19T02:41:38.312Z,100.00
2022-08-19T02:44:29.033Z,100.00
2022-08-19T02:46:53.386Z,100.00
2022-08-19T02:49:20.937Z,100.00
2022-08-19T02:51:48.373Z,100.00
2022-08-19T02:54:15.858Z,100.00
2022-08-19T02:56:44.599Z,100.00
2022-08-19T02:59:13.087Z,100.00
2022-08-19T03:01:42.241Z,100.00
2022-08-19T03:04:12.671Z,100.00
2022-08-19T03:06:42.379Z,100.00
2022-08-19T03:09:10.767Z,100.00
2022-08-19T03:11:39.060Z,100.00
2022-08-19T03:14:08.218Z,100.00
2022-08-19T03:16:48.078Z,100.00
2022-08-19T03:19:18.454Z,100.00
2022-08-19T03:21:46.461Z,100.00
2022-08-19T03:24:16.312Z,100.00
2022-08-19T03:26:47.552Z,100.00
2022-08-19T03:29:16.318Z,100.00
2022-08-19T03:31:57.813Z,100.00
2022-08-19T03:34:28.023Z,100.00
2022-08-19T03:36:57.533Z,100.00
2022-08-19T03:39:26.170Z,100.00
2022-08-19T03:42:32.109Z,100.00
2022-08-19T03:44:43.369Z,100.00
2022-08-19T03:47:10.553Z,100.00
2022-08-19T03:49:37.843Z,100.00
2022-08-19T03:52:08.530Z,100.00
2022-08-19T03:54:36.823Z,100.00
2022-08-19T03:57:04.348Z,100.00
2022-08-19T03:59:34.813Z,100.00
2022-08-19T04:02:06.856Z,100.00
2022-08-19T04:04:34.315Z,100.00
2022-08-19T04:07:01.502Z,100.00
2022-08-19T04:09:28.674Z,100.00
2022-08-19T04:11:57.962Z,100.00
2022-08-19T04:14:29.489Z,100.00
2022-08-19T04:16:57.826Z,100.00
2022-08-19T04:19:25.641Z,100.00
2022-08-19T04:21:55.062Z,100.00
2022-08-19T04:24:23.660Z,100.00
2022-08-19T04:26:51.815Z,100.00
2022-08-19T04:29:26.126Z,100.00
2022-08-19T04:31:55.841Z,100.00
2022-08-19T04:34:25.512Z,100.00
2022-08-19T04:36:55.345Z,100.00
2022-08-19T04:39:49.011Z,100.00
2022-08-19T04:42:36.912Z,100.00
2022-08-19T04:45:09.232Z,100.00
2022-08-19T04:47:47.757Z,100.00
2022-08-19T04:50:27.659Z,100.00
2022-08-19T04:52:57.204Z,100.00
2022-08-19T04:55:26.846Z,100.00
2022-08-19T04:57:55.675Z,100.00
2022-08-19T05:00:23.418Z,100.00
2022-08-19T05:02:50.708Z,100.00
2022-08-19T05:05:18.544Z,100.00
2022-08-19T05:07:45.759Z,100.00
2022-08-19T05:10:13.789Z,100.00
2022-08-19T05:12:41.221Z,100.00
2022-08-19T05:15:12.174Z,100.00
2022-08-19T05:17:59.302Z,100.00
2022-08-19T05:20:45.315Z,100.00
2022-08-19T05:23:21.902Z,69.18
2022-08-19T05:25:51.693Z,59.52
2022-08-19T05:28:21.470Z,62.00
2022-08-19T05:30:51.563Z,69.93
2022-08-19T05:33:19.824Z,71.59
2022-08-19T05:35:47.301Z,76.55
2022-08-19T05:38:14.653Z,80.80
2022-08-19T05:40:42.538Z,74.53
2022-08-19T05:43:10.075Z,74.10
2022-08-19T05:45:41.603Z,77.18
2022-08-19T05:48:12.192Z,75.32
2022-08-19T05:50:41.385Z,80.09
2022-08-19T05:53:09.977Z,77.61
2022-08-19T05:55:39.490Z,76.23
2022-08-19T05:58:08.687Z,75.84
2022-08-19T06:00:38.254Z,73.04
2022-08-19T06:03:12.833Z,73.98
2022-08-19T06:05:49.527Z,72.86
2022-08-19T06:08:20.276Z,78.01
2022-08-19T06:10:47.517Z,75.95
2022-08-19T06:13:14.919Z,72.15
2022-08-19T06:15:45.215Z,75.19
2022-08-19T06:18:12.760Z,67.93
2022-08-19T06:20:55.560Z,71.05
2022-08-19T06:23:24.232Z,61.94
2022-08-19T06:25:51.739Z,53.49
2022-08-19T06:28:19.300Z,48.97
2022-08-19T06:30:46.888Z,48.77
2022-08-19T06:33:14.109Z,50.20
2022-08-19T06:35:42.531Z,49.17
2022-08-19T06:38:10.639Z,41.50
2022-08-19T06:40:39.406Z,38.38
2022-08-19T06:43:08.487Z,35.11
2022-08-19T06:45:39.711Z,44.89
2022-08-19T06:48:08.067Z,41.78
2022-08-19T06:50:39.356Z,41.94
2022-08-19T06:53:07.273Z,41.17
2022-08-19T06:55:34.596Z,35.86
2022-08-19T06:58:05.077Z,41.43
2022-08-19T07:00:33.068Z,37.83
2022-08-19T07:03:06.047Z,40.48
2022-08-19T07:05:40.864Z,43.17
2022-08-19T07:08:12.980Z,38.55
2022-08-19T07:10:44.526Z,43.87
2022-08-19T07:13:12.601Z,45.29
2022-08-19T07:15:40.041Z,46.93
2022-08-19T07:18:07.878Z,43.00
2022-08-19T07:20:41.793Z,44.83
2022-08-19T07:23:16.013Z,38.76
2022-08-19T07:25:44.514Z,47.21
2022-08-19T07:28:18.969Z,44.78
2022-08-19T07:30:53.017Z,48.48
2022-08-19T07:33:20.844Z,44.18
2022-08-19T07:35:48.165Z,51.16
2022-08-19T07:38:16.944Z,42.56
2022-08-19T07:40:47.288Z,38.76
2022-08-19T07:43:17.759Z,41.24
2022-08-19T07:45:46.372Z,35.18
2022-08-19T07:48:13.721Z,33.44
2022-08-19T07:50:41.143Z,45.80
2022-08-19T07:53:08.552Z,39.27
2022-08-19T07:55:41.526Z,43.03
2022-08-19T07:58:13.358Z,38.27
2022-08-19T08:00:40.888Z,33.71
2022-08-19T08:03:09.641Z,39.98
2022-08-19T08:05:55.852Z,36.67
2022-08-19T08:08:44.101Z,39.23
2022-08-19T08:11:20.501Z,35.29
2022-08-19T08:14:00.330Z,33.74
2022-08-19T08:16:32.450Z,40.22
2022-08-19T08:19:00.375Z,40.20
2022-08-19T08:21:28.566Z,37.93
2022-08-19T08:23:56.856Z,40.46
2022-08-19T08:26:24.854Z,49.97
2022-08-19T08:28:53.104Z,46.35
2022-08-19T08:31:21.225Z,48.38
2022-08-19T08:33:48.505Z,47.10
2022-08-19T08:36:17.448Z,51.69
2022-08-19T08:38:49.121Z,53.51
2022-08-19T08:41:44.973Z,48.19
2022-08-19T08:44:20.223Z,49.50
2022-08-19T08:46:59.115Z,48.28
2022-08-19T08:49:38.246Z,46.91
2022-08-19T08:52:22.323Z,43.68
2022-08-19T08:54:55.695Z,43.34
2022-08-19T08:58:03.843Z,37.83
2022-08-19T09:00:35.483Z,35.28
2022-08-19T09:03:06.969Z,32.52
2022-08-19T09:06:03.506Z,31.51
2022-08-19T09:08:56.941Z,35.78
2022-08-19T09:12:14.662Z,38.41
2022-08-19T09:15:02.814Z,36.14
2022-08-19T09:17:32.225Z,37.18
2022-08-19T09:20:22.714Z,38.80
2022-08-19T09:22:50.658Z,44.84
2022-08-19T09:25:24.795Z,44.30
2022-08-19T09:28:02.642Z,40.88
2022-08-19T09:30:38.913Z,38.40
2022-08-19T09:33:07.271Z,38.49
2022-08-19T09:35:53.165Z,39.22
2022-08-19T09:38:22.331Z,42.19
2022-08-19T09:40:51.120Z,42.32
2022-08-19T09:43:32.582Z,43.49
2022-08-19T09:46:02.383Z,40.67
2022-08-19T09:48:29.635Z,43.34
2022-08-19T09:51:07.738Z,43.48
2022-08-19T09:53:40.070Z,39.22
2022-08-19T09:56:07.741Z,40.81
2022-08-19T09:58:37.622Z,42.16
2022-08-19T10:01:07.851Z,38.81
2022-08-19T10:03:37.379Z,35.83
2022-08-19T10:06:14.771Z,36.83
2022-08-19T10:08:50.225Z,35.46
2022-08-19T10:11:28.139Z,37.93
2022-08-19T10:14:06.907Z,39.87
2022-08-19T10:16:39.440Z,40.98
2022-08-19T10:19:07.136Z,38.12
2022-08-19T10:21:35.429Z,41.59
2022-08-19T10:24:06.636Z,43.73
2022-08-19T10:26:38.349Z,45.62
2022-08-19T10:29:09.233Z,44.79
2022-08-19T10:32:01.193Z,42.22
2022-08-19T10:34:27.887Z,41.25
2022-08-19T10:37:01.130Z,40.22
2022-08-19T10:39:43.070Z,40.69
2022-08-19T10:42:11.762Z,40.11
2022-08-19T10:44:39.046Z,41.29
2022-08-19T10:47:21.803Z,39.01
2022-08-19T10:50:12.460Z,40.61
2022-08-19T10:52:49.118Z,41.36
2022-08-19T10:55:43.440Z,43.06
2022-08-19T10:58:13.411Z,41.85
2022-08-19T11:00:41.792Z,40.58
2022-08-19T11:03:09.581Z,40.38
2022-08-19T11:05:39.899Z,42.60
2022-08-19T11:08:22.142Z,40.86
2022-08-19T11:11:00.267Z,40.36
2022-08-19T11:13:29.607Z,42.57
2022-08-19T11:16:07.111Z,41.92
2022-08-19T11:18:38.679Z,43.43
2022-08-19T11:21:15.659Z,45.03
2022-08-19T11:23:43.269Z,46.33
2022-08-19T11:26:11.022Z,46.90
2022-08-19T11:28:39.596Z,46.96
2022-08-19T11:31:18.294Z,46.41
2022-08-19T11:33:47.993Z,46.91
2022-08-19T11:36:17.069Z,46.63
2022-08-19T11:38:45.672Z,46.18
2022-08-19T11:41:13.103Z,46.09
2022-08-19T11:43:40.679Z,46.71
2022-08-19T11:46:11.003Z,46.29
2022-08-19T11:48:39.112Z,46.51
2022-08-19T11:51:12.689Z,46.61
2022-08-19T11:53:40.539Z,47.10
2022-08-19T11:56:09.828Z,46.35
2022-08-19T11:58:37.718Z,46.14
2022-08-19T12:01:13.409Z,45.37
2022-08-19T12:03:41.344Z,45.79
2022-08-19T12:06:11.136Z,45.42
2022-08-19T12:08:38.424Z,45.36
2022-08-19T12:11:08.851Z,45.66
2022-08-19T12:13:36.336Z,45.87
2022-08-19T12:16:13.203Z,45.67
2022-08-19T12:18:44.770Z,45.19
2022-08-19T12:21:13.344Z,44.28
2022-08-19T12:23:41.945Z,44.44
2022-08-19T12:26:11.609Z,44.06
2022-08-19T12:28:39.710Z,44.35
2022-08-19T12:31:07.024Z,45.09
2022-08-19T12:33:34.666Z,44.89
2022-08-19T12:36:07.356Z,43.89
2022-08-19T12:38:35.659Z,43.13
2022-08-19T12:41:08.042Z,43.45
2022-08-19T12:43:38.776Z,43.23
2022-08-19T12:46:06.931Z,43.32
2022-08-19T12:48:40.312Z,43.84
2022-08-19T12:51:11.872Z,43.24
2022-08-19T12:53:39.682Z,42.95
2022-08-19T12:56:11.469Z,42.62
2022-08-19T12:58:42.700Z,43.40
2022-08-19T13:01:21.913Z,44.02
2022-08-19T13:03:54.641Z,44.22
2022-08-19T13:06:22.560Z,43.70
2022-08-19T13:08:49.800Z,43.62
2022-08-19T13:11:20.415Z,44.09
2022-08-19T13:13:51.912Z,43.42
2022-08-19T13:16:21.318Z,43.25
2022-08-19T13:18:49.276Z,42.21
2022-08-19T13:21:16.713Z,41.48
2022-08-19T13:23:44.184Z,42.12
2022-08-19T13:26:13.639Z,42.20
2022-08-19T13:29:01.232Z,42.54
2022-08-19T13:31:50.501Z,42.41
2022-08-19T13:34:20.347Z,42.50
2022-08-19T13:36:47.760Z,42.75
2022-08-19T13:39:15.136Z,42.19
2022-08-19T13:41:49.058Z,41.95
2022-08-19T13:44:20.194Z,41.71
2022-08-19T13:46:49.711Z,41.85
2022-08-19T13:49:22.730Z,42.22
2022-08-19T13:51:50.013Z,42.53
2022-08-19T13:54:17.210Z,42.07
2022-08-19T13:56:46.821Z,42.97
2022-08-19T13:59:14.046Z,42.38
2022-08-19T14:01:42.356Z,42.13
2022-08-19T14:04:10.370Z,41.45
2022-08-19T14:06:37.590Z,40.96
2022-08-19T14:09:05.789Z,41.40
2022-08-19T14:11:33.200Z,41.64
2022-08-19T14:14:00.525Z,41.76
2022-08-19T14:16:28.339Z,41.86
2022-08-19T14:18:55.971Z,42.64
2022-08-19T14:21:25.573Z,42.60
2022-08-19T14:23:53.888Z,42.92
2022-08-19T14:26:22.445Z,43.61
2022-08-19T14:28:50.454Z,43.44
2022-08-19T14:31:20.161Z,42.38
2022-08-19T14:33:48.837Z,42.93
2022-08-19T14:36:16.330Z,42.52
2022-08-19T14:38:43.680Z,42.65
2022-08-19T14:41:18.016Z,42.83
2022-08-19T14:43:47.574Z,42.51
2022-08-19T14:46:21.930Z,43.40
2022-08-19T14:48:51.720Z,43.04
2022-08-19T14:51:21.233Z,42.79
2022-08-19T14:53:51.607Z,43.06
2022-08-19T14:56:23.095Z,43.38
2022-08-19T14:58:53.421Z,43.72
2022-08-19T15:01:23.186Z,44.22
2022-08-19T15:03:53.923Z,44.46
2022-08-19T15:06:23.233Z,44.16
2022-08-19T15:08:52.631Z,44.22
2022-08-19T15:11:23.666Z,44.71
2022-08-19T15:13:51.827Z,44.93
2022-08-19T15:16:19.394Z,44.62
2022-08-19T15:18:50.753Z,45.58
2022-08-19T15:21:27.065Z,45.50
2022-08-19T15:23:58.127Z,45.68
2022-08-19T15:26:33.306Z,45.69
2022-08-19T15:29:02.694Z,46.06
2022-08-19T15:31:33.069Z,46.03
2022-08-19T15:34:00.310Z,46.27
2022-08-19T15:36:28.523Z,46.90
2022-08-19T15:38:57.565Z,46.56
2022-08-19T15:41:28.083Z,46.14
2022-08-19T15:43:59.991Z,46.76
2022-08-19T15:46:29.626Z,46.71
2022-08-19T15:49:00.068Z,46.56
2022-08-19T15:51:28.853Z,47.16
2022-08-19T15:53:57.375Z,47.09
2022-08-19T15:56:27.358Z,47.05
2022-08-19T15:59:13.550Z,47.59
2022-08-19T16:01:59.705Z,46.66
2022-08-19T16:04:45.575Z,46.70
2022-08-19T16:07:13.062Z,47.10
2022-08-19T16:09:40.401Z,48.02
2022-08-19T16:12:08.698Z,47.15
2022-08-19T16:14:38.143Z,47.40
2022-08-19T16:17:05.825Z,47.09
2022-08-19T16:19:33.407Z,46.59
2022-08-19T16:22:00.965Z,45.99
2022-08-19T16:24:29.787Z,46.20
2022-08-19T16:26:57.310Z,46.58
2022-08-19T16:29:33.674Z,46.38
2022-08-19T16:32:03.168Z,45.95
2022-08-19T16:34:31.731Z,46.60
2022-08-19T16:37:01.011Z,46.35
2022-08-19T16:39:28.296Z,46.91
2022-08-19T16:41:55.833Z,47.21
2022-08-19T16:44:23.043Z,46.76
2022-08-19T16:46:58.296Z,47.31
2022-08-19T16:49:54.539Z,47.82
2022-08-19T16:52:19.638Z,47.82
2022-08-19T16:54:47.934Z,47.91
2022-08-19T16:57:16.183Z,48.11
2022-08-19T16:59:49.015Z,48.25
2022-08-19T17:02:18.634Z,48.75
2022-08-19T17:04:57.749Z,48.75
2022-08-19T17:07:28.150Z,48.80
2022-08-19T17:09:56.319Z,49.32
2022-08-19T17:12:30.603Z,49.89
2022-08-19T17:15:02.273Z,49.69
2022-08-19T17:17:31.801Z,50.08
2022-08-19T17:20:00.691Z,50.76
2022-08-19T17:22:28.611Z,51.05
2022-08-19T17:24:58.266Z,51.22
2022-08-19T17:27:31.449Z,51.72
2022-08-19T17:30:02.574Z,52.19
2022-08-19T17:32:35.042Z,52.33
2022-08-19T17:35:04.777Z,52.21
2022-08-19T17:37:32.707Z,52.75
2022-08-19T17:40:01.438Z,53.44
2022-08-19T17:42:29.062Z,53.29
2022-08-19T17:44:59.473Z,53.82
2022-08-19T17:47:28.287Z,54.24
2022-08-19T17:49:56.659Z,53.96
2022-08-19T17:52:24.001Z,54.34
2022-08-19T17:54:51.551Z,55.51
2022-08-19T17:57:18.937Z,54.03
2022-08-19T17:59:46.273Z,54.55
2022-08-19T18:02:13.894Z,54.91
2022-08-19T18:04:45.525Z,55.01
2022-08-19T18:07:21.765Z,54.82
2022-08-19T18:09:52.781Z,55.22
2022-08-19T18:12:26.807Z,55.42
2022-08-19T18:14:54.408Z,55.95
2022-08-19T18:17:23.451Z,56.18
2022-08-19T18:19:50.913Z,55.99
2022-08-19T18:22:23.491Z,56.18
2022-08-19T18:24:51.476Z,56.58
2022-08-19T18:27:19.069Z,56.88
2022-08-19T18:29:46.624Z,57.40
2022-08-19T18:32:17.158Z,57.34
2022-08-19T18:34:50.505Z,58.39
2022-08-19T18:37:17.772Z,58.21
2022-08-19T18:40:04.215Z,58.19
2022-08-19T18:42:50.379Z,57.70
2022-08-19T18:45:36.126Z,58.28
2022-08-19T18:48:27.376Z,57.85
2022-08-19T18:50:58.093Z,58.21
2022-08-19T18:53:27.840Z,58.03
2022-08-19T18:55:55.814Z,57.72
2022-08-19T18:58:26.618Z,57.63
2022-08-19T19:00:57.066Z,58.15
2022-08-19T19:03:26.833Z,57.54
2022-08-19T19:05:54.419Z,57.79
2022-08-19T19:08:26.891Z,57.71
2022-08-19T19:10:56.471Z,57.47
2022-08-19T19:13:23.941Z,57.31
2022-08-19T19:15:51.740Z,57.59
2022-08-19T19:18:19.028Z,57.47
2022-08-19T19:20:46.422Z,58.36
2022-08-19T19:23:13.653Z,58.40
2022-08-19T19:25:49.942Z,58.75
2022-08-19T19:28:27.596Z,58.90
2022-08-19T19:30:59.676Z,59.37
2022-08-19T19:33:28.100Z,59.24
2022-08-19T19:35:55.655Z,59.07
2022-08-19T19:38:23.210Z,59.37
2022-08-19T19:40:50.662Z,59.67
2022-08-19T19:43:18.494Z,60.28
2022-08-19T19:45:47.096Z,60.34
2022-08-19T19:48:15.011Z,59.77
2022-08-19T19:50:44.893Z,60.57
2022-08-19T19:53:15.144Z,61.05
2022-08-19T19:55:43.455Z,61.12
2022-08-19T19:58:10.758Z,60.89
2022-08-19T20:00:38.119Z,61.07
2022-08-19T20:03:06.415Z,61.58
2022-08-19T20:05:33.671Z,62.17
2022-08-19T20:08:19.647Z,62.13
2022-08-19T20:10:47.396Z,62.15
2022-08-19T20:13:15.791Z,62.63
2022-08-19T20:15:46.077Z,62.86
2022-08-19T20:18:14.652Z,62.79
2022-08-19T20:20:43.435Z,63.19
2022-08-19T20:23:10.835Z,63.12
2022-08-19T20:25:39.592Z,63.77
2022-08-19T20:28:06.900Z,63.93
2022-08-19T20:30:34.226Z,63.94
2022-08-19T20:33:04.658Z,64.72
2022-08-19T20:35:31.887Z,64.49
2022-08-19T20:38:03.805Z,64.39
2022-08-19T20:40:32.365Z,64.92
2022-08-19T20:42:59.583Z,65.19
2022-08-19T20:45:32.609Z,65.37
2022-08-19T20:48:06.516Z,65.62
2022-08-19T20:50:35.356Z,64.83
2022-08-19T20:53:10.722Z,65.37
2022-08-19T20:55:38.468Z,65.64
2022-08-19T20:58:05.782Z,66.33
2022-08-19T21:00:33.636Z,66.41
2022-08-19T21:03:01.050Z,66.45
2022-08-19T21:05:30.612Z,66.42
2022-08-19T21:07:58.536Z,66.76
2022-08-19T21:10:26.510Z,66.51
2022-08-19T21:12:53.711Z,66.97
2022-08-19T21:15:21.061Z,67.44
2022-08-19T21:17:48.771Z,67.65
2022-08-19T21:20:16.069Z,67.57
2022-08-19T21:22:43.276Z,67.67
2022-08-19T21:25:11.119Z,67.37
2022-08-19T21:27:38.308Z,67.91
2022-08-19T21:30:06.592Z,67.62
2022-08-19T21:32:34.011Z,67.77
2022-08-19T21:35:02.396Z,67.60
2022-08-19T21:37:29.702Z,67.63
2022-08-19T21:39:57.191Z,67.30
2022-08-19T21:42:24.424Z,67.79
2022-08-19T21:44:52.206Z,67.81
2022-08-19T21:47:19.603Z,68.05
2022-08-19T21:49:46.789Z,67.80
2022-08-19T21:52:14.065Z,68.09
2022-08-19T21:54:42.219Z,68.84
2022-08-19T21:57:10.587Z,69.28
2022-08-19T21:59:44.221Z,68.45
2022-08-19T22:02:21.653Z,68.67
2022-08-19T22:04:50.927Z,69.03
2022-08-19T22:07:20.391Z,69.67
2022-08-19T22:09:49.042Z,69.31
2022-08-19T22:12:23.448Z,69.71
2022-08-19T22:14:52.609Z,69.83
2022-08-19T22:17:20.308Z,69.52
2022-08-19T22:19:47.504Z,69.85
2022-08-19T22:22:39.079Z,70.95
2022-08-19T22:25:08.299Z,70.35
2022-08-19T22:27:36.768Z,71.13
2022-08-19T22:30:07.160Z,71.35
2022-08-19T22:32:38.152Z,71.82
2022-08-19T22:35:08.674Z,72.44
2022-08-19T22:37:35.921Z,72.88
2022-08-19T22:40:05.658Z,73.94
2022-08-19T22:42:33.027Z,73.13
2022-08-19T22:45:01.113Z,72.75
2022-08-19T22:47:29.470Z,72.75
2022-08-19T22:49:59.529Z,72.01
2022-08-19T22:52:26.756Z,71.79
2022-08-19T22:54:59.048Z,72.35
2022-08-19T22:57:27.387Z,72.23
2022-08-19T22:59:56.188Z,72.34
2022-08-19T23:02:34.585Z,71.87
2022-08-19T23:05:02.686Z,71.82
2022-08-19T23:07:30.244Z,71.97
2022-08-19T23:09:57.562Z,71.37
2022-08-19T23:12:31.211Z,70.74
2022-08-19T23:15:19.954Z,71.61
2022-08-19T23:17:47.182Z,71.53
2022-08-19T23:20:15.913Z,71.74
2022-08-19T23:22:46.664Z,71.88
2022-08-19T23:25:17.513Z,71.67
2022-08-19T23:28:03.498Z,71.89
2022-08-19T23:30:32.413Z,71.50
2022-08-19T23:33:07.710Z,71.68
2022-08-19T23:35:38.482Z,71.57
2022-08-19T23:38:07.678Z,71.95
2022-08-19T23:40:36.705Z,71.60
2022-08-19T23:43:07.856Z,71.46
2022-08-19T23:45:38.916Z,71.67
2022-08-19T23:48:07.137Z,72.00
2022-08-19T23:50:35.415Z,72.83
2022-08-19T23:53:03.652Z,72.33
2022-08-19T23:55:35.412Z,72.54
2022-08-19T23:58:03.723Z,73.08
